Time;durP1;ratioP1;P1;durP2;ratioP2;P2;SDS_P1;SDS_P2;PMS_P1;PMS_P2;Temp;Humidity;BMP_temperature;BMP_pressure;BME280_temperature;BME280_humidity;BME280_pressure;Samples;Min_cycle;Max_cycle;Signal;HPM_P1;HPM_P2
2024/01/13 00:01:55;;;;;;;30.90;15.98;;;;;;;;;;5004248;28;92667;-70
2024/01/13 00:04:22;;;;;;;21.63;13.95;;;;;;;;;;4998576;28;92564;-70
2024/01/13 00:06:48;;;;;;;22.42;14.20;;;;;;;;;;4999050;28;93199;-70
2024/01/13 00:09:15;;;;;;;21.67;13.82;;;;;;;;;;4993488;28;95839;-70
2024/01/13 00:11:41;;;;;;;21.25;12.85;;;;;;;;;;5005693;28;92493;-70
2024/01/13 00:14:07;;;;;;;22.02;12.55;;;;;;;;;;4999489;28;93174;-70
2024/01/13 00:16:34;;;;;;;17.58;12.43;;;;;;;;;;5000053;28;92388;-70
2024/01/13 00:19:00;;;;;;;22.08;13.00;;;;;;;;;;5002945;28;94527;-70
2024/01/13 00:21:27;;;;;;;18.63;12.70;;;;;;;;;;4999764;28;96376;-70
2024/01/13 00:23:53;;;;;;;20.55;12.25;;;;;;;;;;4999787;28;92482;-70
2024/01/13 00:26:19;;;;;;;20.52;12.10;;;;;;;;;;5003216;28;93230;-70
2024/01/13 00:28:46;;;;;;;22.67;11.65;;;;;;;;;;5002320;28;93726;-70
2024/01/13 00:31:12;;;;;;;17.58;11.90;;;;;;;;;;5000243;28;92595;-70
2024/01/13 00:33:43;;;;;;;15.45;11.35;;;;;;;;;;5004957;28;94865;-70
2024/01/13 00:36:09;;;;;;;;;;;;;;;;;;5001823;28;93829;-70
2024/01/13 00:38:36;;;;;;;19.52;11.55;;;;;;;;;;5002047;28;123489;-70
2024/01/13 00:41:06;;;;;;;17.17;11.40;;;;;;;;;;5001105;28;93468;-70
2024/01/13 00:43:34;;;;;;;17.30;9.93;;;;;;;;;;5001091;28;92384;-70
2024/01/13 00:46:00;;;;;;;17.65;10.85;;;;;;;;;;4999628;28;93670;-70
2024/01/13 00:48:27;;;;;;;15.80;10.40;;;;;;;;;;5004906;28;93380;-70
2024/01/13 00:51:09;;;;;;;16.65;9.75;;;;;;;;;;5001779;28;91685;-70
2024/01/13 00:53:36;;;;;;;21.70;10.02;;;;;;;;;;5004311;28;92525;-70
2024/01/13 00:56:04;;;;;;;13.23;8.13;;;;;;;;;;4997954;28;93386;-70
2024/01/13 00:58:30;;;;;;;14.88;8.95;;;;;;;;;;5001714;28;95035;-70
2024/01/13 01:01:09;;;;;;;15.70;8.73;;;;;;;;;;4999406;28;93941;-70
2024/01/13 01:03:36;;;;;;;11.15;8.70;;;;;;;;;;5001590;28;92490;-70
2024/01/13 01:06:03;;;;;;;17.15;8.98;;;;;;;;;;5000961;28;93382;-70
2024/01/13 01:08:29;;;;;;;14.10;8.10;;;;;;;;;;4997897;28;93988;-70
2024/01/13 01:11:05;;;;;;;11.68;7.47;;;;;;;;;;5003431;28;92395;-70
2024/01/13 01:13:32;;;;;;;9.85;7.40;;;;;;;;;;5001965;28;93529;-70
2024/01/13 01:15:58;;;;;;;11.93;7.65;;;;;;;;;;5006014;28;93088;-70
2024/01/13 01:18:24;;;;;;;10.35;7.40;;;;;;;;;;5001962;28;94466;-70
2024/01/13 01:20:53;;;;;;;11.40;8.05;;;;;;;;;;5004961;28;94427;-70
2024/01/13 01:23:20;;;;;;;9.57;7.22;;;;;;;;;;4994942;28;94794;-70
2024/01/13 01:25:46;;;;;;;8.68;7.45;;;;;;;;;;4999905;28;95490;-70
2024/01/13 01:28:12;;;;;;;13.40;7.22;;;;;;;;;;5000897;28;93488;-70
2024/01/13 01:30:52;;;;;;;7.65;6.18;;;;;;;;;;4999419;28;92352;-70
2024/01/13 01:33:18;;;;;;;10.25;6.57;;;;;;;;;;5008899;28;93158;-70
2024/01/13 01:35:44;;;;;;;10.07;6.55;;;;;;;;;;5002929;28;93778;-70
2024/01/13 01:38:11;;;;;;;7.15;6.25;;;;;;;;;;5007985;28;92732;-70
2024/01/13 01:40:54;;;;;;;7.20;6.23;;;;;;;;;;5004354;28;92679;-70
2024/01/13 01:43:21;;;;;;;8.07;6.17;;;;;;;;;;5003314;28;92779;-70
2024/01/13 01:45:50;;;;;;;10.82;6.70;;;;;;;;;;4999350;28;93032;-70
2024/01/13 01:48:17;;;;;;;11.70;7.63;;;;;;;;;;5001492;28;95753;-70
2024/01/13 01:50:56;;;;;;;9.10;6.63;;;;;;;;;;5004204;28;92497;-70
2024/01/13 01:53:23;;;;;;;8.55;6.57;;;;;;;;;;5006036;28;93109;-70
2024/01/13 01:55:49;;;;;;;10.88;7.15;;;;;;;;;;5004805;28;93618;-70
2024/01/13 01:58:16;;;;;;;10.00;6.80;;;;;;;;;;5004609;28;92753;-70
2024/01/13 02:00:54;;;;;;;10.10;7.05;;;;;;;;;;5004295;28;92510;-71
2024/01/13 02:03:20;;;;;;;12.05;7.78;;;;;;;;;;5001584;28;92615;-71
2024/01/13 02:05:47;;;;;;;13.55;8.10;;;;;;;;;;5006645;28;95409;-71
2024/01/13 02:08:14;;;;;;;12.02;8.00;;;;;;;;;;5003920;28;93626;-71
2024/01/13 02:10:56;;;;;;;12.52;8.23;;;;;;;;;;5003096;28;92708;-71
2024/01/13 02:13:23;;;;;;;12.80;8.25;;;;;;;;;;4996201;28;94799;-71
2024/01/13 02:15:49;;;;;;;16.52;8.02;;;;;;;;;;5001464;28;93416;-71
2024/01/13 02:18:15;;;;;;;11.23;8.07;;;;;;;;;;5003033;28;92737;-71
2024/01/13 02:20:57;;;;;;;11.88;8.00;;;;;;;;;;5002043;28;93060;-71
2024/01/13 02:23:23;;;;;;;15.10;8.85;;;;;;;;;;5005360;28;93740;-71
2024/01/13 02:25:50;;;;;;;14.10;8.32;;;;;;;;;;5005594;28;93438;-71
2024/01/13 02:28:16;;;;;;;12.68;8.45;;;;;;;;;;5004381;28;93776;-71
2024/01/13 02:31:03;;;;;;;15.98;8.18;;;;;;;;;;5002365;28;91888;-71
2024/01/13 02:33:29;;;;;;;12.85;8.27;;;;;;;;;;5005872;28;93127;-71
2024/01/13 02:35:56;;;;;;;16.35;9.32;;;;;;;;;;4999057;28;93534;-71
2024/01/13 02:38:22;;;;;;;14.25;9.55;;;;;;;;;;5006590;28;95134;-71
2024/01/13 02:41:00;;;;;;;12.55;9.18;;;;;;;;;;4998329;28;95766;-71
2024/01/13 02:43:27;;;;;;;12.88;9.80;;;;;;;;;;5001905;28;93409;-71
2024/01/13 02:45:53;;;;;;;14.40;9.73;;;;;;;;;;5007812;28;93241;-71
2024/01/13 02:48:20;;;;;;;14.32;10.77;;;;;;;;;;5002577;28;93387;-71
2024/01/13 02:51:00;;;;;;;;;;;;;;;;;;5002604;28;92482;-71
2024/01/13 02:53:27;;;;;;;13.00;9.88;;;;;;;;;;4999641;28;123566;-71
2024/01/13 02:55:54;;;;;;;16.00;10.45;;;;;;;;;;5005551;28;92759;-71
2024/01/13 02:58:20;;;;;;;15.68;11.38;;;;;;;;;;5002922;28;93294;-71
2024/01/13 03:01:06;;;;;;;19.02;12.63;;;;;;;;;;4999344;28;93355;-71
2024/01/13 03:03:34;;;;;;;17.58;12.52;;;;;;;;;;4996577;28;96379;-71
2024/01/13 03:06:03;;;;;;;18.92;12.45;;;;;;;;;;5000594;28;92448;-71
2024/01/13 03:08:30;;;;;;;18.33;12.63;;;;;;;;;;5000204;28;93425;-71
2024/01/13 03:11:07;;;;;;;20.38;13.63;;;;;;;;;;5001466;28;92562;-71
2024/01/13 03:13:33;;;;;;;19.23;13.98;;;;;;;;;;5000368;28;95931;-70
2024/01/13 03:16:00;;;;;;;19.00;14.07;;;;;;;;;;5000555;28;93495;-70
2024/01/13 03:18:26;;;;;;;22.58;14.45;;;;;;;;;;4997057;28;92478;-70
2024/01/13 03:21:05;;;;;;;23.83;16.38;;;;;;;;;;4998834;28;93700;-70
2024/01/13 03:23:32;;;;;;;28.67;17.17;;;;;;;;;;5001023;28;93638;-70
2024/01/13 03:25:58;;;;;;;30.80;18.08;;;;;;;;;;5000149;28;92530;-70
2024/01/13 03:28:25;;;;;;;29.00;18.38;;;;;;;;;;5006693;28;94845;-70
2024/01/13 03:31:05;;;;;;;33.87;19.13;;;;;;;;;;5001051;28;92620;-70
2024/01/13 03:33:31;;;;;;;31.02;19.15;;;;;;;;;;5001211;28;93436;-70
2024/01/13 03:35:58;;;;;;;35.42;20.83;;;;;;;;;;4997156;28;94748;-70
2024/01/13 03:38:25;;;;;;;33.03;20.77;;;;;;;;;;5004233;28;92568;-70
2024/01/13 03:41:05;;;;;;;35.78;22.40;;;;;;;;;;4998101;28;93582;-70
2024/01/13 03:43:31;;;;;;;38.40;21.90;;;;;;;;;;4996908;28;94468;-70
2024/01/13 03:45:58;;;;;;;40.50;22.38;;;;;;;;;;4998228;28;91676;-70
2024/01/13 03:48:24;;;;;;;40.75;22.42;;;;;;;;;;5004453;28;92497;-70
2024/01/13 03:50:51;;;;;;;38.35;21.92;;;;;;;;;;5005375;28;93393;-70
2024/01/13 03:53:18;;;;;;;36.55;21.50;;;;;;;;;;5000879;28;94982;-70
2024/01/13 03:55:44;;;;;;;34.88;21.63;;;;;;;;;;5004103;28;93401;-70
2024/01/13 03:58:10;;;;;;;37.65;21.52;;;;;;;;;;5003492;28;92580;-70
2024/01/13 04:00:37;;;;;;;35.20;20.42;;;;;;;;;;5000259;28;93025;-70
2024/01/13 04:03:03;;;;;;;33.35;20.15;;;;;;;;;;5001309;28;93465;-70
2024/01/13 04:05:30;;;;;;;37.10;21.98;;;;;;;;;;5004197;28;92698;-70
2024/01/13 04:07:56;;;;;;;36.92;21.00;;;;;;;;;;4996734;28;93173;-70
2024/01/13 04:10:22;;;;;;;35.97;20.38;;;;;;;;;;5003305;28;92738;-70
2024/01/13 04:12:49;;;;;;;30.95;18.95;;;;;;;;;;4999054;28;92388;-69
2024/01/13 04:15:15;;;;;;;31.80;19.70;;;;;;;;;;5001691;28;93727;-70
2024/01/13 04:17:41;;;;;;;31.55;19.08;;;;;;;;;;5000636;28;95011;-69
2024/01/13 04:20:08;;;;;;;32.30;19.75;;;;;;;;;;4999832;28;97362;-70
2024/01/13 04:22:35;;;;;;;29.67;16.83;;;;;;;;;;4994978;28;93454;-69
2024/01/13 04:25:01;;;;;;;27.70;17.70;;;;;;;;;;5000933;28;92372;-70
2024/01/13 04:27:27;;;;;;;27.88;16.75;;;;;;;;;;5006560;28;93280;-70
2024/01/13 04:29:54;;;;;;;28.25;17.83;;;;;;;;;;5001974;28;93396;-70
2024/01/13 04:32:20;;;;;;;26.75;17.17;;;;;;;;;;4997930;28;92428;-70
2024/01/13 04:34:47;;;;;;;22.42;15.68;;;;;;;;;;5003898;28;93207;-69
2024/01/13 04:37:13;;;;;;;24.58;15.48;;;;;;;;;;5000670;28;94358;-70
2024/01/13 04:39:39;;;;;;;24.20;15.57;;;;;;;;;;5001128;28;93568;-70
2024/01/13 04:42:06;;;;;;;20.88;14.88;;;;;;;;;;4990547;28;96807;-70
2024/01/13 04:44:32;;;;;;;23.00;15.15;;;;;;;;;;5026662;27;92884;-70
2024/01/13 04:46:59;;;;;;;25.65;15.32;;;;;;;;;;5000694;28;93722;-70
2024/01/13 04:49:25;;;;;;;23.45;14.82;;;;;;;;;;5003706;28;93424;-70
2024/01/13 04:51:52;;;;;;;23.52;14.65;;;;;;;;;;4997529;28;92639;-70
2024/01/13 04:54:18;;;;;;;21.77;14.07;;;;;;;;;;5002031;28;93510;-70
2024/01/13 04:56:45;;;;;;;23.50;14.95;;;;;;;;;;5002734;28;92912;-70
2024/01/13 04:59:11;;;;;;;23.63;14.15;;;;;;;;;;5000666;28;93378;-70
2024/01/13 05:01:38;;;;;;;21.92;13.38;;;;;;;;;;5003478;28;93418;-70
2024/01/13 05:04:04;;;;;;;19.48;13.05;;;;;;;;;;5002854;28;92508;-70
2024/01/13 05:06:31;;;;;;;22.65;13.88;;;;;;;;;;5004574;28;96153;-70
2024/01/13 05:08:59;;;;;;;18.67;13.00;;;;;;;;;;5006460;28;93394;-70
2024/01/13 05:11:25;;;;;;;19.67;12.52;;;;;;;;;;5006505;28;92472;-70
2024/01/13 05:13:51;;;;;;;21.60;13.75;;;;;;;;;;5003848;28;93239;-70
2024/01/13 05:16:18;;;;;;;23.42;14.82;;;;;;;;;;4999128;28;93411;-70
2024/01/13 05:18:44;;;;;;;24.92;14.20;;;;;;;;;;5007657;28;92605;-70
2024/01/13 05:21:11;;;;;;;22.50;14.70;;;;;;;;;;5001276;28;94271;-70
2024/01/13 05:23:38;;;;;;;23.20;14.35;;;;;;;;;;5005868;28;91886;-70
2024/01/13 05:26:04;;;;;;;27.65;14.77;;;;;;;;;;5000815;28;92452;-70
2024/01/13 05:28:30;;;;;;;24.83;14.13;;;;;;;;;;5005731;28;97227;-70
2024/01/13 05:30:57;;;;;;;25.90;14.95;;;;;;;;;;5002122;28;94868;-70
2024/01/13 05:33:23;;;;;;;22.48;14.35;;;;;;;;;;5001811;28;95961;-70
2024/01/13 05:35:50;;;;;;;22.02;13.85;;;;;;;;;;5006511;28;93362;-70
2024/01/13 05:38:17;;;;;;;27.13;14.55;;;;;;;;;;5008606;28;93074;-70
2024/01/13 05:40:44;;;;;;;27.90;15.23;;;;;;;;;;4999731;28;93443;-70
2024/01/13 05:43:10;;;;;;;22.10;13.98;;;;;;;;;;5001760;28;92600;-70
2024/01/13 05:45:37;;;;;;;25.10;15.35;;;;;;;;;;5005662;28;93152;-70
2024/01/13 05:48:03;;;;;;;23.40;14.60;;;;;;;;;;4998981;28;93055;-70
2024/01/13 05:50:30;;;;;;;25.92;14.77;;;;;;;;;;5006412;28;92836;-70
2024/01/13 05:52:56;;;;;;;23.40;14.38;;;;;;;;;;5000630;28;93814;-70
2024/01/13 05:55:23;;;;;;;22.60;13.20;;;;;;;;;;5001346;28;95799;-70
2024/01/13 05:57:49;;;;;;;27.73;15.23;;;;;;;;;;5002347;28;92534;-70
2024/01/13 06:00:16;;;;;;;23.25;15.20;;;;;;;;;;5005144;28;93129;-70
2024/01/13 06:02:44;;;;;;;23.10;14.52;;;;;;;;;;5003956;28;92504;-70
2024/01/13 06:05:10;;;;;;;22.80;15.20;;;;;;;;;;5001644;28;93183;-70
2024/01/13 06:07:37;;;;;;;25.00;16.50;;;;;;;;;;5003544;28;93455;-70
2024/01/13 06:10:09;;;;;;;22.55;15.48;;;;;;;;;;5000561;28;92485;-70
2024/01/13 06:12:36;;;;;;;22.45;14.48;;;;;;;;;;5005189;28;91821;-70
2024/01/13 06:15:02;;;;;;;23.00;14.82;;;;;;;;;;5006587;28;93832;-70
2024/01/13 06:17:30;;;;;;;31.48;16.75;;;;;;;;;;5005270;28;92478;-70
2024/01/13 06:19:57;;;;;;;24.05;15.90;;;;;;;;;;4996262;28;95079;-70
2024/01/13 06:22:23;;;;;;;25.67;15.77;;;;;;;;;;5004593;28;93451;-70
2024/01/13 06:24:49;;;;;;;23.98;14.73;;;;;;;;;;5003825;28;93553;-70
2024/01/13 06:27:16;;;;;;;22.88;15.02;;;;;;;;;;5003808;28;93382;-70
2024/01/13 06:29:42;;;;;;;20.98;14.15;;;;;;;;;;5001446;28;92440;-70
2024/01/13 06:32:09;;;;;;;20.88;14.25;;;;;;;;;;5005381;28;93393;-70
2024/01/13 06:34:35;;;;;;;21.40;14.63;;;;;;;;;;4999593;28;94671;-70
2024/01/13 06:37:02;;;;;;;21.38;14.60;;;;;;;;;;4998861;28;93089;-70
2024/01/13 06:39:30;;;;;;;22.48;15.10;;;;;;;;;;5003702;28;92597;-70
2024/01/13 06:41:56;;;;;;;20.65;15.13;;;;;;;;;;5000710;28;93198;-70
2024/01/13 06:44:22;;;;;;;19.92;12.32;;;;;;;;;;5005046;28;95091;-71
2024/01/13 06:47:02;;;;;;;16.23;12.07;;;;;;;;;;5003693;28;93437;-71
2024/01/13 06:49:28;;;;;;;18.70;12.70;;;;;;;;;;5006313;28;92397;-71
2024/01/13 06:51:55;;;;;;;17.65;12.25;;;;;;;;;;5001637;28;93331;-71
2024/01/13 06:54:21;;;;;;;17.88;11.90;;;;;;;;;;5002380;28;93760;-71
2024/01/13 06:56:48;;;;;;;17.77;12.27;;;;;;;;;;4999751;28;92890;-71
2024/01/13 06:59:14;;;;;;;20.92;12.65;;;;;;;;;;5001376;28;95293;-71
2024/01/13 07:01:41;;;;;;;17.27;11.50;;;;;;;;;;4993808;28;93059;-71
2024/01/13 07:04:09;;;;;;;18.23;11.18;;;;;;;;;;5007300;28;92595;-71
2024/01/13 07:06:36;;;;;;;16.38;11.35;;;;;;;;;;5005352;28;92829;-71
2024/01/13 07:09:03;;;;;;;19.67;11.30;;;;;;;;;;5003586;28;95358;-72
2024/01/13 07:11:30;;;;;;;15.57;10.45;;;;;;;;;;5001616;28;95654;-72
2024/01/13 07:13:56;;;;;;;17.00;10.63;;;;;;;;;;5006758;28;93428;-72
2024/01/13 07:16:22;;;;;;;15.50;10.32;;;;;;;;;;5004428;28;92636;-72
2024/01/13 07:18:49;;;;;;;18.17;11.30;;;;;;;;;;5000705;28;93512;-72
2024/01/13 07:21:16;;;;;;;27.38;13.23;;;;;;;;;;4999495;28;93480;-72
2024/01/13 07:23:43;;;;;;;15.70;11.25;;;;;;;;;;5004695;28;92414;-72
2024/01/13 07:26:10;;;;;;;15.82;9.85;;;;;;;;;;5005980;28;93638;-71
2024/01/13 07:28:36;;;;;;;14.93;9.77;;;;;;;;;;4999125;28;92710;-72
2024/01/13 07:31:03;;;;;;;19.38;10.27;;;;;;;;;;4998096;28;93152;-71
2024/01/13 07:33:29;;;;;;;63.65;22.77;;;;;;;;;;4994250;28;95853;-71
2024/01/13 07:35:56;;;;;;;21.48;11.00;;;;;;;;;;5001977;28;92887;-70
2024/01/13 07:38:22;;;;;;;13.95;8.68;;;;;;;;;;5001508;28;93117;-71
2024/01/13 07:40:49;;;;;;;17.85;9.77;;;;;;;;;;5003075;28;93780;-71
2024/01/13 07:43:15;;;;;;;14.93;9.10;;;;;;;;;;5002469;28;92653;-69
2024/01/13 07:45:41;;;;;;;15.05;9.32;;;;;;;;;;5002799;28;93121;-71
2024/01/13 07:48:08;;;;;;;18.70;10.00;;;;;;;;;;5004977;28;93984;-74
2024/01/13 07:50:34;;;;;;;21.08;13.32;;;;;;;;;;5002917;28;93172;-71
2024/01/13 07:53:01;;;;;;;23.92;10.07;;;;;;;;;;5000569;28;93375;-72
2024/01/13 07:55:27;;;;;;;16.17;9.93;;;;;;;;;;5002507;28;92741;-69
2024/01/13 07:57:53;;;;;;;14.82;9.82;;;;;;;;;;5001524;28;94817;-72
2024/01/13 08:00:20;;;;;;;18.02;11.18;;;;;;;;;;5001089;28;93738;-67
2024/01/13 08:02:46;;;;;;;15.75;10.15;;;;;;;;;;5002961;28;92796;-71
2024/01/13 08:05:14;;;;;;;23.40;10.15;;;;;;;;;;5003089;28;93156;-69
2024/01/13 08:07:40;;;;;;;14.73;9.52;;;;;;;;;;4996291;28;93461;-69
2024/01/13 08:10:07;;;;;;;20.23;9.70;;;;;;;;;;5006507;28;92594;-72
2024/01/13 08:12:33;;;;;;;18.88;11.50;;;;;;;;;;4998356;28;93371;-71
2024/01/13 08:15:00;;;;;;;25.88;12.45;;;;;;;;;;5000859;28;91673;-71
2024/01/13 08:17:26;;;;;;;22.67;12.40;;;;;;;;;;5000965;28;92814;-71
2024/01/13 08:19:53;;;;;;;14.25;9.07;;;;;;;;;;5001514;28;93468;-70
2024/01/13 08:22:19;;;;;;;15.13;8.15;;;;;;;;;;4994178;28;94969;-68
2024/01/13 08:24:45;;;;;;;15.57;7.40;;;;;;;;;;5002054;28;95662;-69
2024/01/13 08:27:12;;;;;;;7.53;6.05;;;;;;;;;;5000353;28;93475;-69
2024/01/13 08:29:38;;;;;;;11.65;6.40;;;;;;;;;;5000779;28;92722;-69
2024/01/13 08:32:05;;;;;;;8.68;5.82;;;;;;;;;;5006410;28;94128;-71
2024/01/13 08:34:31;;;;;;;7.20;5.90;;;;;;;;;;5000541;28;92406;-71
2024/01/13 08:36:58;;;;;;;13.23;6.78;;;;;;;;;;5001604;28;93111;-71
2024/01/13 08:39:24;;;;;;;8.82;6.18;;;;;;;;;;5000389;28;92844;-70
2024/01/13 08:41:51;;;;;;;12.00;5.80;;;;;;;;;;5000930;28;92790;-71
2024/01/13 08:44:17;;;;;;;10.82;6.00;;;;;;;;;;5000606;28;93515;-71
2024/01/13 08:46:44;;;;;;;9.30;6.28;;;;;;;;;;5000194;28;95822;-71
2024/01/13 08:49:10;;;;;;;10.35;5.95;;;;;;;;;;4997378;28;92466;-72
2024/01/13 08:51:36;;;;;;;8.77;5.43;;;;;;;;;;5000901;28;94373;-72
2024/01/13 08:54:03;;;;;;;7.22;5.03;;;;;;;;;;5004820;28;94034;-72
2024/01/13 08:56:34;;;;;;;6.43;5.00;;;;;;;;;;5002305;28;94347;-71
2024/01/13 08:59:01;;;;;;;6.30;4.90;;;;;;;;;;4999738;28;93486;-71
2024/01/13 09:01:27;;;;;;;9.10;4.93;;;;;;;;;;5000060;28;92763;-72
2024/01/13 09:04:04;;;;;;;6.00;5.00;;;;;;;;;;5002738;28;92290;-69
2024/01/13 09:06:30;;;;;;;7.90;5.32;;;;;;;;;;5001652;28;93428;-68
2024/01/13 09:08:57;;;;;;;10.35;5.15;;;;;;;;;;5002573;28;92561;-69
2024/01/13 09:11:23;;;;;;;15.90;6.38;;;;;;;;;;4999215;28;94867;-70
2024/01/13 09:14:05;;;;;;;23.23;10.25;;;;;;;;;;5000962;28;92551;-69
2024/01/13 09:16:31;;;;;;;19.05;6.70;;;;;;;;;;5004166;28;92549;-69
2024/01/13 09:18:57;;;;;;;19.65;7.40;;;;;;;;;;4999635;28;94710;-68
2024/01/13 09:21:24;;;;;;;15.20;6.53;;;;;;;;;;4999998;28;93871;-68
2024/01/13 09:24:05;;;;;;;25.90;10.05;;;;;;;;;;5001955;28;93014;-68
2024/01/13 09:26:32;;;;;;;26.60;8.73;;;;;;;;;;5000294;28;95015;-69
2024/01/13 09:28:58;;;;;;;23.48;9.13;;;;;;;;;;4999042;28;91779;-70
2024/01/13 09:31:25;;;;;;;12.07;6.65;;;;;;;;;;5003705;28;92500;-69
2024/01/13 09:34:04;;;;;;;14.93;7.10;;;;;;;;;;5002558;28;95410;-68
2024/01/13 09:36:31;;;;;;;27.95;9.73;;;;;;;;;;5001471;28;95031;-68
2024/01/13 09:38:58;;;;;;;17.50;8.55;;;;;;;;;;4995610;28;92592;-68
2024/01/13 09:41:25;;;;;;;19.33;9.27;;;;;;;;;;4998176;28;92546;-69
2024/01/13 09:44:07;;;;;;;12.32;6.65;;;;;;;;;;5000420;28;93648;-68
2024/01/13 09:46:35;;;;;;;12.82;7.40;;;;;;;;;;5000423;28;93367;-67
2024/01/13 09:49:02;;;;;;;13.32;6.65;;;;;;;;;;5000374;28;93075;-67
2024/01/13 09:51:29;;;;;;;11.43;7.10;;;;;;;;;;5003728;28;93191;-68
2024/01/13 09:54:00;;;;;;;;;;;;;;;;;;4999432;28;92762;-68
2024/01/13 09:56:32;;;;;;;17.13;7.97;;;;;;;;;;5005035;28;118510;-67
2024/01/13 09:58:59;;;;;;;15.07;7.38;;;;;;;;;;5001132;28;93125;-68
2024/01/13 10:01:26;;;;;;;15.02;7.90;;;;;;;;;;4992589;28;94822;-68
2024/01/13 10:04:00;;;;;;;10.38;7.22;;;;;;;;;;4998550;28;95612;-68
2024/01/13 10:06:27;;;;;;;14.75;8.35;;;;;;;;;;5002608;28;93511;-68
2024/01/13 10:08:53;;;;;;;18.02;9.52;;;;;;;;;;5001743;28;92515;-67
2024/01/13 10:11:20;;;;;;;15.32;8.95;;;;;;;;;;4996281;28;92550;-68
2024/01/13 10:14:06;;;;;;;14.13;9.00;;;;;;;;;;4998925;28;92523;-72
2024/01/13 10:16:32;;;;;;;17.48;9.70;;;;;;;;;;5003460;28;92428;-73
2024/01/13 10:19:02;;;;;;;17.50;9.98;;;;;;;;;;5002035;28;94185;-71
2024/01/13 10:21:29;;;;;;;16.80;10.85;;;;;;;;;;5001338;28;94283;-71
2024/01/13 10:24:05;;;;;;;26.35;13.65;;;;;;;;;;4997286;28;93240;-72
2024/01/13 10:26:32;;;;;;;20.05;12.35;;;;;;;;;;5003113;28;95949;-71
2024/01/13 10:28:58;;;;;;;18.88;12.40;;;;;;;;;;5005581;28;92434;-72
2024/01/13 10:31:25;;;;;;;31.35;15.00;;;;;;;;;;5004053;28;93511;-72
2024/01/13 10:34:02;;;;;;;22.05;14.63;;;;;;;;;;5001333;28;93608;-71
2024/01/13 10:36:30;;;;;;;23.95;15.05;;;;;;;;;;5000924;28;92613;-71
2024/01/13 10:38:58;;;;;;;22.85;14.82;;;;;;;;;;5004789;28;93234;-72
2024/01/13 10:41:28;;;;;;;20.52;14.73;;;;;;;;;;4997546;28;93396;-71
2024/01/13 10:44:00;;;;;;;23.50;15.32;;;;;;;;;;5005028;28;91982;-73
2024/01/13 10:46:28;;;;;;;25.83;14.93;;;;;;;;;;4993499;28;93443;-74
2024/01/13 10:49:02;;;;;;;25.23;15.38;;;;;;;;;;4986823;28;92521;-72
2024/01/13 10:51:38;;;;;;;24.92;16.08;;;;;;;;;;4998314;28;94902;-72
2024/01/13 10:54:07;;;;;;;26.83;17.38;;;;;;;;;;4994041;28;93492;-71
2024/01/13 10:56:35;;;;;;;30.27;18.25;;;;;;;;;;4997535;28;92405;-72
2024/01/13 10:59:02;;;;;;;29.40;18.50;;;;;;;;;;4996947;28;93408;-74
2024/01/13 11:01:28;;;;;;;31.83;19.80;;;;;;;;;;5001676;28;93348;-72
2024/01/13 11:04:03;;;;;;;37.80;20.25;;;;;;;;;;4995090;28;92451;-72
2024/01/13 11:06:29;;;;;;;34.40;19.57;;;;;;;;;;5005150;28;93069;-73
2024/01/13 11:08:56;;;;;;;36.22;19.30;;;;;;;;;;4997952;28;93536;-73
2024/01/13 11:11:28;;;;;;;33.83;20.20;;;;;;;;;;4994972;28;93892;-72
2024/01/13 11:14:14;;;;;;;31.45;19.77;;;;;;;;;;4995962;28;92675;-73
2024/01/13 11:16:44;;;;;;;37.90;22.27;;;;;;;;;;4998298;28;95052;-72
2024/01/13 11:19:10;;;;;;;35.72;21.88;;;;;;;;;;5005666;28;95637;-70
2024/01/13 11:21:38;;;;;;;58.38;27.65;;;;;;;;;;4999202;28;93512;-71
2024/01/13 11:24:13;;;;;;;62.20;31.13;;;;;;;;;;4992571;28;92536;-67
2024/01/13 11:26:45;;;;;;;47.70;26.20;;;;;;;;;;4995032;28;93359;-67
2024/01/13 11:29:24;;;;;;;55.42;28.67;;;;;;;;;;5003837;28;93823;-66
2024/01/13 11:31:53;;;;;;;66.13;35.40;;;;;;;;;;4994048;28;93205;-67
2024/01/13 11:34:21;;;;;;;45.40;26.73;;;;;;;;;;4996245;28;93066;-67
2024/01/13 11:36:49;;;;;;;62.13;31.05;;;;;;;;;;4988309;28;93465;-67
2024/01/13 11:39:17;;;;;;;54.05;28.67;;;;;;;;;;5000663;28;93647;-67
2024/01/13 11:41:55;;;;;;;47.88;27.63;;;;;;;;;;4994710;28;96251;-67
2024/01/13 11:44:30;;;;;;;50.15;25.13;;;;;;;;;;4989823;28;94924;-68
2024/01/13 11:47:00;;;;;;;56.83;29.95;;;;;;;;;;4997695;28;93236;-67
2024/01/13 11:49:30;;;;;;;44.92;26.08;;;;;;;;;;4996436;28;94164;-66
2024/01/13 11:52:06;;;;;;;53.78;29.55;;;;;;;;;;4996494;28;93435;-67
2024/01/13 11:54:34;;;;;;;49.67;27.38;;;;;;;;;;4994534;28;93318;-66
2024/01/13 11:57:07;;;;;;;46.55;26.75;;;;;;;;;;4995079;28;92446;-67
2024/01/13 11:59:34;;;;;;;39.03;25.20;;;;;;;;;;4999132;28;93583;-66
2024/01/13 12:02:00;;;;;;;42.42;25.27;;;;;;;;;;5002566;28;93423;-67
2024/01/13 12:04:28;;;;;;;47.10;26.63;;;;;;;;;;5000046;28;92638;-68
2024/01/13 12:06:54;;;;;;;45.35;26.27;;;;;;;;;;4999727;28;94969;-66
2024/01/13 12:09:24;;;;;;;39.72;25.27;;;;;;;;;;4993574;28;92502;-68
2024/01/13 12:11:53;;;;;;;46.17;27.47;;;;;;;;;;5000372;28;92514;-67
2024/01/13 12:14:26;;;;;;;39.95;25.05;;;;;;;;;;4996629;28;93574;-68
2024/01/13 12:16:53;;;;;;;42.42;26.33;;;;;;;;;;4988458;28;92637;-66
2024/01/13 12:19:20;;;;;;;39.40;25.10;;;;;;;;;;5002998;28;94370;-67
2024/01/13 12:21:47;;;;;;;48.17;27.20;;;;;;;;;;4995689;28;94050;-66
2024/01/13 12:24:14;;;;;;;46.28;26.20;;;;;;;;;;4993756;28;92101;-67
2024/01/13 12:26:41;;;;;;;48.88;27.13;;;;;;;;;;4993282;28;93071;-67
2024/01/13 12:29:08;;;;;;;45.45;26.80;;;;;;;;;;5002492;28;93700;-67
2024/01/13 12:31:35;;;;;;;41.88;25.83;;;;;;;;;;4997676;28;97780;-66
2024/01/13 12:34:11;;;;;;;44.05;25.75;;;;;;;;;;5005340;28;95616;-72
2024/01/13 12:36:38;;;;;;;44.88;26.10;;;;;;;;;;5002611;28;92464;-74
2024/01/13 12:39:08;;;;;;;52.28;25.98;;;;;;;;;;4999513;28;93610;-72
2024/01/13 12:41:34;;;;;;;43.28;26.92;;;;;;;;;;4993490;28;93642;-72
2024/01/13 12:44:10;;;;;;;45.33;25.25;;;;;;;;;;4997085;28;92388;-72
2024/01/13 12:46:36;;;;;;;44.05;25.63;;;;;;;;;;5000628;28;93562;-71
2024/01/13 12:49:13;;;;;;;42.83;26.10;;;;;;;;;;5004125;28;93674;-71
2024/01/13 12:51:40;;;;;;;48.92;27.45;;;;;;;;;;4996260;28;92528;-69
2024/01/13 12:54:07;;;;;;;43.88;27.27;;;;;;;;;;5003565;28;93310;-70
2024/01/13 12:56:33;;;;;;;41.53;25.50;;;;;;;;;;4996318;28;95853;-73
2024/01/13 12:59:00;;;;;;;47.70;24.67;;;;;;;;;;5001761;28;96544;-71
2024/01/13 13:01:27;;;;;;;51.63;27.40;;;;;;;;;;4996694;28;93353;-72
2024/01/13 13:03:54;;;;;;;45.28;26.02;;;;;;;;;;5003889;28;93919;-73
2024/01/13 13:06:21;;;;;;;44.67;25.88;;;;;;;;;;5001136;28;93552;-74
2024/01/13 13:08:47;;;;;;;46.53;27.23;;;;;;;;;;4992820;28;95599;-70
2024/01/13 13:11:14;;;;;;;46.55;26.48;;;;;;;;;;4994502;28;92680;-70
2024/01/13 13:13:41;;;;;;;50.65;26.45;;;;;;;;;;4999753;28;93308;-71
2024/01/13 13:16:08;;;;;;;48.42;27.42;;;;;;;;;;4992022;28;93421;-70
2024/01/13 13:18:34;;;;;;;42.63;26.35;;;;;;;;;;4996254;28;92759;-69
2024/01/13 13:21:01;;;;;;;51.72;27.98;;;;;;;;;;5000669;28;96422;-69
2024/01/13 13:23:27;;;;;;;45.35;27.27;;;;;;;;;;5002580;28;92493;-70
2024/01/13 13:25:54;;;;;;;47.90;26.90;;;;;;;;;;5004410;28;95360;-70
2024/01/13 13:28:21;;;;;;;47.00;27.50;;;;;;;;;;4999108;28;94459;-71
2024/01/13 13:30:47;;;;;;;45.80;26.88;;;;;;;;;;5003241;28;92499;-70
2024/01/13 13:33:14;;;;;;;53.33;26.65;;;;;;;;;;5004128;28;94171;-69
2024/01/13 13:35:41;;;;;;;47.00;28.25;;;;;;;;;;4998572;28;94501;-70
2024/01/13 13:38:08;;;;;;;42.25;25.98;;;;;;;;;;5001074;28;92089;-69
2024/01/13 13:40:36;;;;;;;48.40;26.25;;;;;;;;;;5005707;28;93045;-71
2024/01/13 13:43:03;;;;;;;50.20;27.83;;;;;;;;;;4999823;28;92529;-70
2024/01/13 13:45:29;;;;;;;50.17;27.50;;;;;;;;;;5001200;28;94940;-70
2024/01/13 13:47:56;;;;;;;50.25;27.55;;;;;;;;;;5002218;28;93538;-69
2024/01/13 13:50:23;;;;;;;48.75;27.02;;;;;;;;;;5003610;28;92652;-69
2024/01/13 13:52:50;;;;;;;44.95;26.73;;;;;;;;;;4998142;28;93275;-71
2024/01/13 13:55:16;;;;;;;47.17;25.65;;;;;;;;;;5002635;28;93856;-72
2024/01/13 13:57:43;;;;;;;52.38;26.83;;;;;;;;;;5005367;28;92557;-71
2024/01/13 14:00:09;;;;;;;42.63;24.23;;;;;;;;;;5005683;28;93247;-71
2024/01/13 14:02:36;;;;;;;49.50;27.13;;;;;;;;;;4993866;28;91973;-71
2024/01/13 14:05:05;;;;;;;50.13;25.88;;;;;;;;;;5002581;28;92598;-70
2024/01/13 14:07:43;;;;;;;43.58;24.88;;;;;;;;;;4997172;28;93577;-71
2024/01/13 14:10:10;;;;;;;52.15;26.58;;;;;;;;;;4999893;28;95727;-70
2024/01/13 14:12:36;;;;;;;52.80;27.95;;;;;;;;;;4998446;28;96587;-71
2024/01/13 14:15:02;;;;;;;53.95;28.25;;;;;;;;;;5002619;28;93843;-71
2024/01/13 14:17:42;;;;;;;50.80;27.25;;;;;;;;;;4996174;28;92405;-70
2024/01/13 14:20:09;;;;;;;42.15;24.20;;;;;;;;;;5002392;28;93685;-70
2024/01/13 14:22:36;;;;;;;47.67;26.25;;;;;;;;;;5003846;28;93594;-70
2024/01/13 14:25:03;;;;;;;43.38;24.75;;;;;;;;;;4994280;28;93214;-70
2024/01/13 14:27:40;;;;;;;48.47;26.10;;;;;;;;;;4994656;28;92729;-70
2024/01/13 14:30:07;;;;;;;42.65;25.63;;;;;;;;;;5001986;28;92580;-70